createdAt,value
2022-12-15T12:16:25.698Z,-3.24
2022-12-15T12:19:05.559Z,-3.16
2022-12-15T12:21:37.892Z,-3.12
2022-12-15T12:24:16.775Z,-3.05
2022-12-15T12:29:48.638Z,-2.88
2022-12-15T12:32:32.652Z,-2.82
2022-12-15T12:35:31.089Z,-2.80
2022-12-15T12:38:04.985Z,-2.80
2022-12-15T12:40:57.959Z,-2.74
2022-12-15T12:43:35.524Z,-2.65
2022-12-15T12:46:15.694Z,-2.53
2022-12-15T12:48:56.473Z,-2.51
2022-12-15T12:51:30.910Z,-2.45
2022-12-15T12:54:01.347Z,-2.37
2022-12-15T12:56:40.462Z,-2.27
2022-12-15T12:59:40.180Z,-2.13
2022-12-15T13:02:47.858Z,-1.96
2022-12-15T13:05:35.784Z,-1.76
2022-12-15T13:08:30.619Z,-1.56
2022-12-15T13:11:38.483Z,-1.44
2022-12-15T13:14:21.015Z,-1.43
2022-12-15T13:17:24.894Z,-1.46
2022-12-15T13:20:21.687Z,-1.39
2022-12-15T13:22:51.754Z,-1.41
2022-12-15T13:25:36.404Z,-1.45
2022-12-15T13:28:32.868Z,-1.51
2022-12-15T13:31:28.516Z,-1.60
2022-12-15T13:34:02.399Z,-1.66
2022-12-15T13:36:55.628Z,-1.68
2022-12-15T13:39:57.560Z,-1.75
2022-12-15T13:42:48.236Z,-1.82
2022-12-15T13:45:51.277Z,-1.97
2022-12-15T13:48:31.869Z,-2.10
2022-12-15T13:51:22.999Z,-2.21
2022-12-15T13:53:56.401Z,-2.30
2022-12-15T13:56:50.756Z,-2.41
2022-12-15T13:59:28.071Z,-2.51
2022-12-15T14:01:55.892Z,-2.59
2022-12-15T14:04:24.183Z,-2.65
2022-12-15T14:06:54.764Z,-2.68
2022-12-15T14:09:26.912Z,-2.71
2022-12-15T14:11:56.663Z,-2.77
2022-12-15T14:14:27.745Z,-2.80
2022-12-15T14:17:03.815Z,-2.85
2022-12-15T14:19:41.006Z,-2.92
2022-12-15T14:22:27.595Z,-2.98
2022-12-15T14:25:01.604Z,-3.04
2022-12-15T14:27:33.470Z,-3.07
2022-12-15T14:30:22.912Z,-3.10
2022-12-15T14:32:55.606Z,-3.17
2022-12-15T14:35:30.528Z,-3.21
2022-12-15T14:38:01.897Z,-3.32
2022-12-15T14:40:30.855Z,-3.40
2022-12-15T14:43:00.590Z,-3.50
2022-12-15T14:45:31.241Z,-3.60
2022-12-15T14:50:49.712Z,-3.78
2022-12-15T14:53:21.449Z,-3.84
2022-12-15T14:55:49.648Z,-3.91
2022-12-15T14:58:36.408Z,-3.99
2022-12-15T15:01:07.259Z,-4.05
2022-12-15T15:03:10.726Z,-2.94
2022-12-15T15:03:38.318Z,-4.13
2022-12-15T15:06:16.674Z,-4.16
2022-12-15T15:08:48.159Z,-4.23
2022-12-15T15:11:26.922Z,-4.29
2022-12-15T15:13:57.857Z,-4.35
2022-12-15T15:16:25.877Z,-4.41
2022-12-15T15:18:56.119Z,-4.48
2022-12-15T15:21:26.089Z,-4.55
2022-12-15T15:24:01.593Z,-4.61
2022-12-15T15:26:31.019Z,-4.67
2022-12-15T15:29:00.455Z,-4.72
2022-12-15T15:35:40.742Z,-4.88
2022-12-15T15:38:31.060Z,-4.93
2022-12-15T15:41:01.082Z,-5.00
2022-12-15T15:43:29.609Z,-5.08
2022-12-15T15:46:01.787Z,-5.12
2022-12-15T15:48:33.110Z,-5.18
2022-12-15T15:51:02.163Z,-5.23
2022-12-15T15:53:33.001Z,-5.28
2022-12-15T15:56:01.720Z,-5.33
2022-12-15T15:58:29.984Z,-5.39
2022-12-15T16:00:59.407Z,-5.45
2022-12-15T16:03:27.372Z,-5.51
2022-12-15T16:05:55.318Z,-5.57
2022-12-15T16:08:27.444Z,-5.63
2022-12-15T16:10:55.899Z,-5.68
2022-12-15T16:13:26.324Z,-5.72
2022-12-15T16:15:54.683Z,-5.76
2022-12-15T16:18:23.870Z,-5.79
2022-12-15T16:20:52.699Z,-5.84
2022-12-15T16:23:24.090Z,-5.89
2022-12-15T16:25:53.807Z,-5.94
2022-12-15T16:28:23.637Z,-5.97
2022-12-15T16:30:52.007Z,-6.04
2022-12-15T16:33:20.247Z,-6.09
2022-12-15T16:35:51.236Z,-6.12
2022-12-15T16:38:24.165Z,-6.18
2022-12-15T16:40:52.807Z,-6.22
2022-12-15T16:43:28.899Z,-6.27
2022-12-15T16:46:01.206Z,-6.32
2022-12-15T16:48:29.459Z,-6.38
2022-12-15T16:50:59.844Z,-6.43
2022-12-15T16:53:29.931Z,-6.47
2022-12-15T16:55:59.678Z,-6.52
2022-12-15T16:58:29.623Z,-6.57
2022-12-15T17:00:58.393Z,-6.61
2022-12-15T17:03:27.685Z,-6.66
2022-12-15T17:05:57.327Z,-6.71
2022-12-15T17:08:30.345Z,-6.75
2022-12-15T17:10:58.543Z,-6.79
2022-12-15T17:13:39.105Z,-6.81
2022-12-15T17:16:14.212Z,-6.86
2022-12-15T17:18:42.989Z,-6.89
2022-12-15T17:21:16.318Z,-6.93
2022-12-15T17:23:49.237Z,-6.99
2022-12-15T17:26:28.552Z,-7.03
2022-12-15T17:29:00.922Z,-7.07
2022-12-15T17:31:34.800Z,-7.10
2022-12-15T17:34:20.866Z,-7.15
2022-12-15T17:36:48.872Z,-7.19
2022-12-15T17:39:19.928Z,-7.23
2022-12-15T17:42:04.342Z,-7.28
2022-12-15T17:44:37.294Z,-7.34
2022-12-15T17:47:08.867Z,-7.40
2022-12-15T17:49:38.287Z,-7.44
2022-12-15T17:52:14.149Z,-7.50
2022-12-15T17:54:43.339Z,-7.54
2022-12-15T17:57:12.393Z,-7.57
2022-12-15T17:59:40.298Z,-7.61
2022-12-15T18:02:11.899Z,-7.66
2022-12-15T18:04:39.997Z,-7.69
2022-12-15T18:07:14.909Z,-7.73
2022-12-15T18:09:44.093Z,-7.76
2022-12-15T18:12:18.825Z,-7.80
2022-12-15T18:14:46.665Z,-7.81
2022-12-15T18:17:14.801Z,-7.84
2022-12-15T18:19:42.527Z,-7.88
2022-12-15T18:22:13.526Z,-7.96
2022-12-15T18:24:41.380Z,-7.99
2022-12-15T18:27:20.699Z,-8.02
2022-12-15T18:29:48.413Z,-8.06
2022-12-15T18:32:16.906Z,-8.08
2022-12-15T18:34:44.970Z,-8.13
2022-12-15T18:37:16.526Z,-8.16
2022-12-15T18:39:44.278Z,-8.18
2022-12-15T18:42:17.848Z,-8.19
2022-12-15T18:44:49.947Z,-8.21
2022-12-15T18:47:19.619Z,-8.22
2022-12-15T18:49:47.507Z,-8.25
2022-12-15T18:52:18.724Z,-8.27
2022-12-15T18:54:47.864Z,-8.30
2022-12-15T18:57:28.424Z,-8.33
2022-12-15T18:59:58.887Z,-8.35
2022-12-15T19:02:26.783Z,-8.38
2022-12-15T19:04:54.771Z,-8.43
2022-12-15T19:07:22.677Z,-8.47
2022-12-15T19:09:50.802Z,-8.50
2022-12-15T19:12:19.108Z,-8.51
2022-12-15T19:14:50.132Z,-8.54
2022-12-15T19:17:37.011Z,-8.56
2022-12-15T19:20:25.710Z,-8.58
2022-12-15T19:22:53.767Z,-8.62
2022-12-15T19:25:26.268Z,-8.66
2022-12-15T19:27:58.766Z,-8.68
2022-12-15T19:30:29.753Z,-8.71
2022-12-15T19:32:58.212Z,-8.73
2022-12-15T19:35:27.327Z,-8.77
2022-12-15T19:37:57.862Z,-8.80
2022-12-15T19:40:28.349Z,-8.82
2022-12-15T19:42:56.311Z,-8.85
2022-12-15T19:45:26.121Z,-8.90
2022-12-15T19:47:55.502Z,-8.92
2022-12-15T19:50:24.573Z,-8.93
2022-12-15T19:52:55.857Z,-8.95
2022-12-15T19:55:27.946Z,-8.98
2022-12-15T19:57:55.788Z,-9.01
2022-12-15T20:00:24.796Z,-9.06
2022-12-15T20:02:54.845Z,-9.09
2022-12-15T20:05:25.601Z,-9.12
2022-12-15T20:07:54.653Z,-9.14
2022-12-15T20:10:29.464Z,-9.18
2022-12-15T20:12:59.662Z,-9.21
2022-12-15T20:15:27.431Z,-9.23
2022-12-15T20:17:56.895Z,-9.26
2022-12-15T20:20:37.911Z,-9.29
2022-12-15T20:23:11.941Z,-9.31
2022-12-15T20:25:41.338Z,-9.31
2022-12-15T20:28:15.778Z,-9.34
2022-12-15T20:30:44.098Z,-9.37
2022-12-15T20:33:13.113Z,-9.38
2022-12-15T20:35:43.177Z,-9.40
2022-12-15T20:38:24.867Z,-9.42
2022-12-15T20:40:52.839Z,-9.43
2022-12-15T20:43:22.607Z,-9.47
2022-12-15T20:46:02.933Z,-9.49
2022-12-15T20:48:31.216Z,-9.52
2022-12-15T20:51:04.346Z,-9.54
2022-12-15T20:53:35.698Z,-9.57
2022-12-15T20:56:03.742Z,-9.60
2022-12-15T20:58:33.352Z,-9.63
2022-12-15T21:01:01.527Z,-9.65
2022-12-15T21:03:34.009Z,-9.68
2022-12-15T21:06:03.244Z,-9.70
2022-12-15T21:08:32.527Z,-9.72
2022-12-15T21:11:03.401Z,-9.74
2022-12-15T21:13:35.417Z,-9.76
2022-12-15T21:16:03.544Z,-9.78
2022-12-15T21:21:25.364Z,-9.82
2022-12-15T21:23:53.203Z,-9.86
2022-12-15T21:26:24.311Z,-9.86
2022-12-15T21:28:55.775Z,-9.89
2022-12-15T21:31:24.696Z,-9.92
2022-12-15T21:33:52.784Z,-9.93
2022-12-15T21:36:23.966Z,-9.97
2022-12-15T21:38:53.177Z,-9.98
2022-12-15T21:41:24.068Z,-9.99
2022-12-15T21:43:51.795Z,-10.00
2022-12-15T21:49:18.229Z,-10.06
2022-12-15T21:51:51.916Z,-10.08
2022-12-15T21:54:24.723Z,-10.11
2022-12-15T21:56:55.280Z,-10.12
2022-12-15T21:59:26.174Z,-10.13
2022-12-15T22:01:55.305Z,-10.17
2022-12-15T22:04:29.213Z,-10.18
2022-12-15T22:06:58.556Z,-10.18
2022-12-15T22:09:26.391Z,-10.19
2022-12-15T22:11:56.784Z,-10.22
2022-12-15T22:14:26.988Z,-10.24
2022-12-15T22:16:55.176Z,-10.26
2022-12-15T22:19:23.900Z,-10.28
2022-12-15T22:21:52.059Z,-10.29
2022-12-15T22:24:21.363Z,-10.32
2022-12-15T22:26:49.304Z,-10.35
2022-12-15T22:29:19.693Z,-10.37
2022-12-15T22:31:47.914Z,-10.38
2022-12-15T22:34:17.461Z,-10.41
2022-12-15T22:36:45.788Z,-10.41
2022-12-15T22:39:14.993Z,-10.43
2022-12-15T22:41:46.332Z,-10.45
2022-12-15T22:44:19.145Z,-10.47
2022-12-15T22:46:47.550Z,-10.50
2022-12-15T22:49:18.965Z,-10.51
2022-12-15T22:51:47.099Z,-10.54
2022-12-15T22:54:19.890Z,-10.55
2022-12-15T22:56:51.680Z,-10.57
2022-12-15T22:59:24.512Z,-10.59
2022-12-15T23:01:52.547Z,-10.61
2022-12-15T23:04:20.325Z,-10.62
2022-12-15T23:06:48.612Z,-10.63
2022-12-15T23:09:16.341Z,-10.62
2022-12-15T23:11:43.966Z,-10.63
2022-12-15T23:14:14.929Z,-10.64
2022-12-15T23:16:42.427Z,-10.66
2022-12-15T23:19:23.480Z,-10.66
2022-12-15T23:21:51.230Z,-10.67
2022-12-15T23:24:19.519Z,-10.69
2022-12-15T23:26:47.296Z,-10.69
2022-12-15T23:29:16.579Z,-10.72
2022-12-15T23:31:44.392Z,-10.74
2022-12-15T23:34:12.389Z,-10.75
2022-12-15T23:36:40.083Z,-10.80
2022-12-15T23:39:07.781Z,-10.86
2022-12-15T23:41:36.281Z,-10.88
2022-12-15T23:44:04.030Z,-10.93
2022-12-15T23:46:33.954Z,-10.95
2022-12-15T23:49:01.764Z,-10.97
2022-12-15T23:51:29.507Z,-10.98
2022-12-15T23:53:57.263Z,-11.00
2022-12-15T23:56:25.589Z,-11.03
2022-12-15T23:58:56.788Z,-11.05
